createdAt,value
2023-05-18T00:01:23.352Z,2.70
2023-05-18T00:03:55.032Z,2.43
2023-05-18T00:06:22.720Z,2.43
2023-05-18T00:08:49.781Z,2.73
2023-05-18T00:11:17.326Z,2.40
2023-05-18T00:13:44.446Z,2.80
2023-05-18T00:16:13.879Z,2.33
2023-05-18T00:18:40.902Z,3.23
2023-05-18T00:21:09.194Z,2.30
2023-05-18T00:23:39.557Z,4.20
2023-05-18T00:26:06.453Z,2.50
2023-05-18T00:28:33.301Z,2.33
2023-05-18T00:31:00.588Z,2.07
2023-05-18T00:33:27.506Z,2.13
2023-05-18T00:35:54.344Z,2.10
2023-05-18T00:38:21.293Z,2.40
2023-05-18T00:40:48.169Z,2.90
2023-05-18T00:43:15.098Z,3.17
2023-05-18T00:45:42.104Z,3.40
2023-05-18T00:48:09.161Z,4.10
2023-05-18T00:50:36.424Z,4.97
2023-05-18T00:53:03.330Z,3.73
2023-05-18T00:55:30.777Z,3.67
2023-05-18T00:58:02.411Z,8.20
2023-05-18T01:00:29.645Z,2.97
2023-05-18T01:02:57.397Z,2.30
2023-05-18T01:05:24.618Z,2.23
2023-05-18T01:07:51.669Z,1.97
2023-05-18T01:10:20.016Z,2.17
2023-05-18T01:12:56.525Z,1.97
2023-05-18T01:15:38.288Z,1.87
2023-05-18T01:18:15.473Z,4.27
2023-05-18T01:21:13.588Z,2.63
2023-05-18T01:24:26.222Z,2.23
2023-05-18T01:26:58.672Z,1.70
2023-05-18T01:29:29.185Z,2.00
2023-05-18T01:31:56.336Z,2.30
2023-05-18T01:34:23.399Z,2.40
2023-05-18T01:36:50.317Z,2.37
2023-05-18T01:39:17.518Z,2.00
2023-05-18T01:41:59.268Z,2.23
2023-05-18T01:44:53.590Z,3.00
2023-05-18T01:47:20.454Z,2.40
2023-05-18T01:50:13.892Z,2.20
2023-05-18T01:52:46.345Z,2.40
2023-05-18T01:55:15.716Z,2.23
2023-05-18T01:57:46.103Z,2.50
2023-05-18T02:00:13.416Z,2.27
2023-05-18T02:02:41.003Z,2.60
2023-05-18T02:05:12.352Z,2.40
2023-05-18T02:07:40.338Z,1.80
2023-05-18T02:10:08.638Z,1.63
2023-05-18T02:12:35.667Z,2.27
2023-05-18T02:15:05.616Z,2.33
2023-05-18T02:17:39.713Z,2.20
2023-05-18T02:20:08.008Z,2.10
2023-05-18T02:22:35.548Z,2.47
2023-05-18T02:25:03.033Z,2.70
2023-05-18T02:27:29.850Z,3.00
2023-05-18T02:29:56.912Z,2.10
2023-05-18T02:32:23.865Z,2.30
2023-05-18T02:34:53.989Z,2.57
2023-05-18T02:37:23.097Z,2.43
2023-05-18T02:39:50.723Z,2.80
2023-05-18T02:42:17.598Z,2.40
2023-05-18T02:44:44.402Z,2.40
2023-05-18T02:47:11.506Z,2.20
2023-05-18T02:49:38.347Z,2.73
2023-05-18T02:52:05.602Z,2.67
2023-05-18T02:54:32.550Z,1.87
2023-05-18T02:56:59.484Z,2.70
2023-05-18T02:59:26.509Z,2.70
2023-05-18T03:01:53.307Z,2.93
2023-05-18T03:04:22.034Z,2.80
2023-05-18T03:06:52.835Z,2.30
2023-05-18T03:09:20.069Z,2.70
2023-05-18T03:11:47.070Z,2.00
2023-05-18T03:14:14.104Z,2.33
2023-05-18T03:16:41.132Z,2.37
2023-05-18T03:19:08.224Z,2.90
2023-05-18T03:21:36.180Z,2.47
2023-05-18T03:24:03.870Z,2.70
2023-05-18T03:26:33.786Z,2.53
2023-05-18T03:29:02.115Z,2.60
2023-05-18T03:31:29.106Z,2.53
2023-05-18T03:33:55.949Z,2.70
2023-05-18T03:36:22.838Z,2.87
2023-05-18T03:38:49.751Z,2.80
2023-05-18T03:41:16.780Z,2.00
2023-05-18T03:43:43.658Z,2.83
2023-05-18T03:46:10.793Z,2.80
2023-05-18T03:48:37.693Z,3.73
2023-05-18T03:51:05.249Z,2.83
2023-05-18T03:53:33.744Z,2.50
2023-05-18T03:56:00.761Z,2.50
2023-05-18T03:58:27.672Z,2.73
2023-05-18T04:00:54.880Z,2.63
2023-05-18T04:03:24.798Z,3.10
2023-05-18T04:05:51.957Z,2.40
2023-05-18T04:08:19.336Z,2.77
2023-05-18T04:10:46.469Z,3.10
2023-05-18T04:13:13.322Z,2.87
2023-05-18T04:15:40.424Z,2.80
2023-05-18T04:18:08.394Z,3.23
2023-05-18T04:20:35.712Z,2.67
2023-05-18T04:23:03.628Z,2.77
2023-05-18T04:25:30.787Z,2.67
2023-05-18T04:27:58.151Z,2.93
2023-05-18T04:30:27.498Z,2.80
2023-05-18T04:32:54.774Z,3.20
2023-05-18T04:35:21.756Z,2.97
2023-05-18T04:37:48.631Z,2.77
2023-05-18T04:40:17.476Z,3.33
2023-05-18T04:42:48.499Z,3.13
2023-05-18T04:45:17.698Z,3.37
2023-05-18T04:47:46.835Z,3.10
2023-05-18T04:50:17.747Z,2.90
2023-05-18T04:52:49.199Z,3.07
2023-05-18T04:55:26.500Z,3.30
2023-05-18T04:57:56.786Z,3.50
2023-05-18T05:00:26.270Z,3.27
2023-05-18T05:02:54.216Z,3.37
2023-05-18T05:05:24.705Z,3.07
2023-05-18T05:07:52.644Z,3.00
2023-05-18T05:10:22.785Z,3.23
2023-05-18T05:12:52.823Z,3.33
2023-05-18T05:15:20.846Z,3.10
2023-05-18T05:17:48.925Z,3.10
2023-05-18T05:20:16.769Z,3.20
2023-05-18T05:22:43.852Z,3.57
2023-05-18T05:25:11.382Z,3.03
2023-05-18T05:27:38.489Z,3.23
2023-05-18T05:30:06.143Z,3.50
2023-05-18T05:32:33.167Z,3.13
2023-05-18T05:35:00.080Z,3.77
2023-05-18T05:37:27.016Z,2.90
2023-05-18T05:39:54.044Z,3.37
2023-05-18T05:42:21.157Z,3.00
2023-05-18T05:44:48.039Z,3.07
2023-05-18T05:47:15.036Z,3.00
2023-05-18T05:49:42.090Z,3.27
2023-05-18T05:52:09.006Z,2.93
2023-05-18T05:54:35.878Z,3.13
2023-05-18T05:57:04.021Z,3.30
2023-05-18T05:59:31.198Z,3.13
2023-05-18T06:02:00.673Z,3.70
2023-05-18T06:04:27.719Z,3.40
2023-05-18T06:06:54.937Z,3.40
2023-05-18T06:09:21.907Z,3.33
2023-05-18T06:11:48.808Z,3.07
2023-05-18T06:14:15.714Z,3.17
2023-05-18T06:16:42.960Z,3.00
2023-05-18T06:19:10.146Z,3.10
2023-05-18T06:21:37.131Z,3.20
2023-05-18T06:24:05.257Z,3.20
2023-05-18T06:26:32.819Z,2.90
2023-05-18T06:28:59.917Z,2.37
2023-05-18T06:31:28.306Z,3.27
2023-05-18T06:33:57.118Z,3.10
2023-05-18T06:36:24.072Z,3.10
2023-05-18T06:38:51.143Z,3.10
2023-05-18T06:41:18.012Z,3.07
2023-05-18T06:43:44.930Z,2.30
2023-05-18T06:46:20.712Z,3.07
2023-05-18T06:48:47.758Z,3.77
2023-05-18T06:51:16.321Z,3.13
2023-05-18T06:53:43.928Z,2.90
2023-05-18T06:56:14.092Z,3.20
2023-05-18T06:58:42.392Z,2.53
2023-05-18T07:01:10.181Z,2.87
2023-05-18T07:03:37.689Z,3.13
2023-05-18T07:06:05.065Z,2.90
2023-05-18T07:08:32.310Z,2.87
2023-05-18T07:10:59.456Z,2.73
2023-05-18T07:13:26.394Z,2.50
2023-05-18T07:15:53.337Z,2.27
2023-05-18T07:18:20.275Z,3.00
2023-05-18T07:20:47.196Z,2.53
2023-05-18T07:23:14.585Z,2.53
2023-05-18T07:25:42.028Z,2.40
2023-05-18T07:28:09.087Z,2.63
2023-05-18T07:30:36.221Z,2.30
2023-05-18T07:33:03.255Z,3.13
2023-05-18T07:35:31.141Z,2.77
2023-05-18T07:37:58.115Z,2.80
2023-05-18T07:40:24.963Z,4.97
2023-05-18T07:42:51.897Z,3.30
2023-05-18T07:45:19.079Z,3.53
2023-05-18T07:47:46.009Z,2.77
2023-05-18T07:50:13.007Z,2.70
2023-05-18T07:52:39.944Z,2.70
2023-05-18T07:55:07.349Z,3.10
2023-05-18T07:57:35.520Z,2.37
2023-05-18T08:00:05.087Z,3.00
2023-05-18T08:02:33.996Z,2.50
2023-05-18T08:05:01.438Z,2.60
2023-05-18T08:07:30.125Z,2.70
2023-05-18T08:09:57.251Z,2.50
2023-05-18T08:12:24.772Z,2.70
2023-05-18T08:14:51.736Z,2.67
2023-05-18T08:17:19.778Z,2.87
2023-05-18T08:19:47.917Z,3.40
2023-05-18T08:22:15.648Z,2.80
2023-05-18T08:24:42.539Z,2.60
2023-05-18T08:27:11.447Z,2.93
2023-05-18T08:29:38.594Z,2.40
2023-05-18T08:32:08.690Z,2.40
2023-05-18T08:34:35.987Z,2.77
2023-05-18T08:37:03.091Z,3.20
2023-05-18T08:39:32.060Z,3.03
2023-05-18T08:42:41.609Z,3.87
2023-05-18T08:45:27.683Z,2.80
2023-05-18T08:47:57.623Z,3.27
2023-05-18T08:50:27.048Z,2.97
2023-05-18T08:52:59.471Z,2.80
2023-05-18T08:55:28.289Z,2.50
2023-05-18T08:58:00.131Z,2.57
2023-05-18T09:00:27.888Z,1.77
2023-05-18T09:02:55.881Z,2.80
2023-05-18T09:05:23.910Z,2.67
2023-05-18T09:07:51.747Z,2.73
2023-05-18T09:10:19.095Z,3.23
2023-05-18T09:12:47.341Z,3.10
2023-05-18T09:15:20.056Z,3.30
2023-05-18T09:17:46.891Z,4.03
2023-05-18T09:20:14.429Z,2.83
2023-05-18T09:22:41.439Z,2.80
2023-05-18T09:25:11.895Z,2.57
2023-05-18T09:27:39.320Z,3.47
2023-05-18T09:30:11.396Z,3.13
2023-05-18T09:32:38.515Z,3.17
2023-05-18T09:35:09.155Z,3.30
2023-05-18T09:37:36.569Z,2.97
2023-05-18T09:40:05.688Z,2.87
2023-05-18T09:42:43.097Z,3.30
2023-05-18T09:45:26.671Z,2.77
2023-05-18T09:47:54.550Z,2.60
2023-05-18T09:50:22.510Z,2.77
2023-05-18T09:52:50.540Z,2.50
2023-05-18T09:55:19.127Z,3.07
2023-05-18T09:57:50.793Z,3.07
2023-05-18T10:00:20.084Z,3.13
2023-05-18T10:02:50.612Z,2.90
2023-05-18T10:05:36.065Z,2.73
2023-05-18T10:08:03.209Z,2.37
2023-05-18T10:10:30.549Z,3.10
2023-05-18T10:12:58.614Z,2.60
2023-05-18T10:15:26.157Z,2.90
2023-05-18T10:17:56.789Z,3.30
2023-05-18T10:20:24.950Z,2.63
2023-05-18T10:22:54.418Z,3.17
2023-05-18T10:25:25.028Z,2.73
2023-05-18T10:27:56.934Z,2.57
2023-05-18T10:30:24.188Z,2.40
2023-05-18T10:32:52.462Z,3.20
2023-05-18T10:35:19.662Z,2.70
2023-05-18T10:37:48.081Z,3.47
2023-05-18T10:40:15.848Z,2.70
2023-05-18T10:42:43.784Z,3.20
2023-05-18T10:45:10.890Z,2.83
2023-05-18T10:47:39.870Z,2.73
2023-05-18T10:50:08.454Z,3.33
2023-05-18T10:52:37.815Z,3.33
2023-05-18T10:55:06.093Z,2.77
2023-05-18T10:57:40.922Z,2.53
2023-05-18T11:00:10.466Z,2.80
2023-05-18T11:02:42.379Z,2.57
2023-05-18T11:05:11.110Z,2.90
2023-05-18T11:07:38.750Z,2.67
2023-05-18T11:10:10.908Z,2.83
2023-05-18T11:12:41.683Z,2.77
2023-05-18T11:15:09.105Z,2.47
2023-05-18T11:17:36.704Z,2.60
2023-05-18T11:20:07.964Z,2.70
2023-05-18T11:23:01.952Z,2.80
2023-05-18T11:25:36.687Z,2.50
2023-05-18T11:28:06.026Z,2.67
2023-05-18T11:30:42.229Z,3.20
2023-05-18T11:33:32.725Z,3.00
2023-05-18T11:36:11.399Z,3.60
2023-05-18T11:39:07.076Z,3.00
2023-05-18T11:41:43.277Z,3.10
2023-05-18T11:44:16.070Z,2.67
2023-05-18T11:47:01.531Z,3.10
2023-05-18T11:49:30.844Z,2.67
2023-05-18T11:52:04.859Z,2.80
2023-05-18T11:54:58.874Z,2.80
2023-05-18T11:57:34.849Z,3.20
2023-05-18T12:00:07.959Z,2.90
2023-05-18T12:02:35.978Z,2.87
2023-05-18T12:05:08.195Z,2.90
2023-05-18T12:07:36.497Z,3.17
2023-05-18T12:10:05.032Z,2.70
2023-05-18T12:12:33.135Z,2.87
2023-05-18T12:15:02.224Z,3.17
2023-05-18T12:17:41.838Z,2.30
2023-05-18T12:20:17.446Z,3.20
2023-05-18T12:22:53.739Z,2.90
2023-05-18T12:25:23.318Z,3.30
2023-05-18T12:27:52.495Z,2.67
2023-05-18T12:30:21.677Z,3.13
2023-05-18T12:32:57.949Z,3.00
2023-05-18T12:35:25.879Z,3.47
2023-05-18T12:37:55.592Z,3.27
2023-05-18T12:40:23.571Z,3.40
2023-05-18T12:42:59.740Z,3.23
2023-05-18T12:45:29.019Z,3.60
2023-05-18T12:47:56.438Z,2.83
2023-05-18T12:50:26.892Z,3.00
2023-05-18T12:52:56.265Z,3.10
2023-05-18T12:55:25.326Z,3.03
2023-05-18T12:58:15.853Z,2.37
2023-05-18T13:00:47.459Z,2.97
2023-05-18T13:03:20.380Z,3.07
2023-05-18T13:06:03.507Z,2.87
2023-05-18T13:08:32.435Z,3.10
2023-05-18T13:11:13.629Z,2.97
2023-05-18T13:13:58.522Z,2.40
2023-05-18T13:16:26.140Z,2.90
2023-05-18T13:19:07.743Z,3.00
2023-05-18T13:21:35.726Z,2.60
2023-05-18T13:24:03.788Z,3.03
2023-05-18T13:26:31.257Z,3.10
2023-05-18T13:28:58.361Z,2.80
2023-05-18T13:31:25.498Z,2.37
2023-05-18T13:33:52.916Z,2.30
2023-05-18T13:36:19.973Z,2.20
2023-05-18T13:38:46.892Z,2.10
2023-05-18T13:41:15.169Z,2.27
2023-05-18T13:43:42.816Z,2.60
2023-05-18T13:46:09.917Z,2.67
2023-05-18T13:48:36.941Z,2.90
2023-05-18T13:51:04.034Z,2.87
2023-05-18T13:53:31.123Z,2.60
2023-05-18T13:55:58.035Z,2.83
2023-05-18T13:58:24.999Z,2.60
2023-05-18T14:00:53.933Z,2.80
2023-05-18T14:03:21.055Z,2.60
2023-05-18T14:05:48.206Z,2.37
2023-05-18T14:08:15.201Z,2.87
2023-05-18T14:10:42.279Z,2.40
2023-05-18T14:13:09.349Z,2.50
2023-05-18T14:15:36.626Z,2.87
2023-05-18T14:18:03.982Z,2.43
2023-05-18T14:20:31.346Z,3.03
2023-05-18T14:22:58.499Z,2.77
2023-05-18T14:25:25.588Z,2.50
2023-05-18T14:27:52.666Z,2.80
2023-05-18T14:30:19.744Z,3.03
2023-05-18T14:32:46.824Z,3.10
2023-05-18T14:35:13.736Z,3.27
2023-05-18T14:37:40.830Z,2.50
2023-05-18T14:40:08.716Z,2.37
2023-05-18T14:42:37.221Z,2.97
2023-05-18T14:45:04.769Z,2.90
2023-05-18T14:47:31.667Z,2.70
2023-05-18T14:49:58.553Z,3.10
2023-05-18T14:52:26.247Z,3.00
2023-05-18T14:54:53.241Z,3.00
2023-05-18T14:57:20.231Z,2.73
2023-05-18T14:59:47.130Z,3.23
2023-05-18T15:02:14.269Z,2.43
2023-05-18T15:04:41.442Z,2.90
2023-05-18T15:07:08.741Z,2.87
2023-05-18T15:09:35.741Z,2.90
2023-05-18T15:12:02.664Z,2.80
2023-05-18T15:14:29.582Z,2.57
2023-05-18T15:16:56.864Z,3.80
2023-05-18T15:19:23.867Z,2.63
2023-05-18T15:21:51.317Z,2.77
2023-05-18T15:24:18.205Z,3.20
2023-05-18T15:26:45.359Z,2.53
2023-05-18T15:29:12.238Z,2.67
2023-05-18T15:31:40.066Z,2.70
2023-05-18T15:34:07.169Z,3.37
2023-05-18T15:36:36.359Z,3.00
2023-05-18T15:39:04.883Z,2.70
2023-05-18T15:41:34.990Z,3.13
2023-05-18T15:44:02.157Z,3.20
2023-05-18T15:46:35.739Z,3.23
2023-05-18T15:49:03.996Z,3.47
2023-05-18T15:51:31.670Z,3.30
2023-05-18T15:53:58.571Z,3.23
2023-05-18T15:56:25.798Z,3.27
2023-05-18T15:58:52.946Z,3.13
2023-05-18T16:01:19.909Z,3.03
2023-05-18T16:03:46.966Z,3.00
2023-05-18T16:06:14.004Z,2.90
2023-05-18T16:08:40.938Z,2.80
2023-05-18T16:11:07.806Z,2.70
2023-05-18T16:13:34.644Z,2.97
2023-05-18T16:16:02.777Z,3.10
2023-05-18T16:18:29.781Z,3.23
2023-05-18T16:20:57.014Z,3.20
2023-05-18T16:23:26.528Z,3.07
2023-05-18T16:25:53.434Z,2.77
2023-05-18T16:28:20.305Z,2.97
2023-05-18T16:30:47.421Z,2.73
2023-05-18T16:33:14.522Z,2.63
2023-05-18T16:35:41.648Z,2.60
2023-05-18T16:38:08.550Z,2.40
2023-05-18T16:40:35.545Z,2.90
2023-05-18T16:43:02.465Z,3.10
2023-05-18T16:45:29.484Z,3.20
2023-05-18T16:47:56.494Z,3.33
2023-05-18T16:50:23.436Z,2.93
2023-05-18T16:52:50.491Z,2.80
2023-05-18T16:55:18.349Z,3.07
2023-05-18T16:57:45.315Z,2.87
2023-05-18T17:00:12.877Z,2.97
2023-05-18T17:02:40.123Z,3.30
2023-05-18T17:05:08.538Z,2.80
2023-05-18T17:07:36.696Z,3.03
2023-05-18T17:10:05.467Z,3.00
2023-05-18T17:12:33.800Z,3.10
2023-05-18T17:15:02.897Z,3.83
2023-05-18T17:17:30.171Z,5.90
2023-05-18T17:19:57.292Z,2.70
2023-05-18T17:22:24.241Z,2.70
2023-05-18T17:24:51.268Z,2.67
2023-05-18T17:27:18.235Z,3.23
2023-05-18T17:29:45.111Z,4.27
2023-05-18T17:32:12.014Z,3.53
2023-05-18T17:34:40.339Z,2.87
2023-05-18T17:37:07.553Z,3.67
2023-05-18T17:39:34.504Z,2.93
2023-05-18T17:42:01.937Z,3.00
2023-05-18T17:44:29.249Z,3.90
2023-05-18T17:46:56.990Z,5.30
2023-05-18T17:49:24.064Z,3.57
2023-05-18T17:51:52.372Z,3.87
2023-05-18T17:54:19.347Z,3.97
2023-05-18T17:56:46.714Z,3.20
2023-05-18T17:59:13.710Z,3.83
2023-05-18T18:01:40.736Z,3.27
2023-05-18T18:04:07.805Z,4.03
2023-05-18T18:06:36.023Z,3.27
2023-05-18T18:09:04.924Z,3.60
2023-05-18T18:11:32.074Z,3.03
2023-05-18T18:13:59.728Z,3.83
2023-05-18T18:16:26.983Z,5.00
2023-05-18T18:18:54.023Z,3.83
2023-05-18T18:21:20.925Z,3.27
2023-05-18T18:23:47.843Z,3.10
2023-05-18T18:26:14.700Z,3.37
2023-05-18T18:28:41.742Z,4.13
2023-05-18T18:31:09.226Z,3.83
2023-05-18T18:33:36.283Z,3.60
2023-05-18T18:36:05.668Z,3.40
2023-05-18T18:38:34.045Z,3.37
2023-05-18T18:41:04.302Z,3.83
2023-05-18T18:43:31.628Z,3.60
2023-05-18T18:45:59.473Z,3.47
2023-05-18T18:48:27.121Z,3.23
2023-05-18T18:50:54.129Z,3.27
2023-05-18T18:53:21.338Z,4.57
2023-05-18T18:55:48.432Z,3.57
2023-05-18T18:58:15.824Z,3.30
2023-05-18T19:00:43.075Z,3.27
2023-05-18T19:03:10.159Z,3.97
2023-05-18T19:05:37.516Z,3.50
2023-05-18T19:08:04.659Z,3.80
2023-05-18T19:10:33.134Z,3.60
2023-05-18T19:13:04.978Z,3.13
2023-05-18T19:15:35.186Z,4.03
2023-05-18T19:18:03.095Z,3.83
2023-05-18T19:20:30.559Z,4.10
2023-05-18T19:22:57.512Z,3.70
2023-05-18T19:25:25.666Z,3.73
2023-05-18T19:27:53.353Z,4.03
2023-05-18T19:30:21.827Z,3.47
2023-05-18T19:32:50.039Z,3.60
2023-05-18T19:35:19.578Z,3.60
2023-05-18T19:37:47.195Z,3.83
2023-05-18T19:40:14.195Z,3.40
2023-05-18T19:42:41.053Z,3.33
2023-05-18T19:45:08.485Z,3.87
2023-05-18T19:47:35.645Z,3.83
2023-05-18T19:50:03.030Z,3.67
2023-05-18T19:52:29.995Z,4.17
2023-05-18T19:54:57.269Z,3.97
2023-05-18T19:57:26.199Z,4.33
2023-05-18T19:59:53.577Z,4.57
2023-05-18T20:02:20.589Z,3.83
2023-05-18T20:04:48.487Z,4.17
2023-05-18T20:07:15.416Z,4.40
2023-05-18T20:09:42.255Z,4.30
2023-05-18T20:12:09.212Z,4.60
2023-05-18T20:14:36.747Z,4.40
2023-05-18T20:17:04.751Z,5.03
2023-05-18T20:19:32.602Z,4.07
2023-05-18T20:21:59.570Z,5.40
2023-05-18T20:24:26.526Z,4.20
2023-05-18T20:26:53.811Z,4.03
2023-05-18T20:29:20.763Z,4.43
2023-05-18T20:31:48.061Z,4.27
2023-05-18T20:34:14.995Z,4.77
2023-05-18T20:36:42.000Z,4.53
2023-05-18T20:39:09.250Z,4.30
2023-05-18T20:41:40.239Z,4.33
2023-05-18T20:44:10.604Z,4.97
2023-05-18T20:46:38.513Z,4.30
2023-05-18T20:49:05.575Z,4.13
2023-05-18T20:51:32.501Z,4.77
2023-05-18T20:53:59.378Z,4.80
2023-05-18T20:56:26.832Z,4.13
2023-05-18T20:58:54.083Z,4.43
2023-05-18T21:01:21.592Z,4.73
2023-05-18T21:03:48.471Z,4.77
2023-05-18T21:06:15.313Z,4.90
2023-05-18T21:08:45.305Z,4.73
2023-05-18T21:11:12.548Z,4.83
2023-05-18T21:13:39.425Z,5.00
2023-05-18T21:16:06.714Z,4.40
2023-05-18T21:18:34.720Z,4.30
2023-05-18T21:21:02.704Z,5.37
2023-05-18T21:23:29.856Z,5.23
2023-05-18T21:25:57.429Z,5.10
2023-05-18T21:28:25.070Z,4.70
2023-05-18T21:30:52.625Z,4.83
2023-05-18T21:33:20.050Z,4.67
2023-05-18T21:35:47.072Z,5.60
2023-05-18T21:38:13.927Z,4.97
2023-05-18T21:40:43.842Z,5.27
2023-05-18T21:43:11.281Z,5.27
2023-05-18T21:45:38.866Z,4.50
2023-05-18T21:48:06.234Z,4.70
2023-05-18T21:50:34.924Z,4.87
2023-05-18T21:53:05.593Z,5.07
2023-05-18T21:55:32.663Z,5.30
2023-05-18T21:57:59.890Z,5.37
2023-05-18T22:00:27.114Z,4.93
2023-05-18T22:02:54.304Z,5.27
2023-05-18T22:05:21.746Z,5.87
2023-05-18T22:07:49.103Z,5.33
2023-05-18T22:10:16.153Z,4.90
2023-05-18T22:12:43.685Z,5.23
2023-05-18T22:15:11.305Z,4.93
2023-05-18T22:17:39.154Z,5.10
2023-05-18T22:20:09.086Z,5.67
2023-05-18T22:22:36.011Z,6.20
2023-05-18T22:25:02.872Z,4.87
2023-05-18T22:27:30.135Z,5.30
2023-05-18T22:29:57.250Z,5.83
2023-05-18T22:32:24.465Z,4.57
2023-05-18T22:34:52.043Z,5.93
2023-05-18T22:37:19.096Z,4.73
2023-05-18T22:39:46.130Z,4.43
2023-05-18T22:42:13.096Z,4.90
2023-05-18T22:44:39.977Z,5.23
2023-05-18T22:47:06.926Z,4.77
2023-05-18T22:49:35.862Z,4.87
2023-05-18T22:52:04.511Z,4.13
2023-05-18T22:54:31.588Z,4.97
2023-05-18T22:56:59.567Z,4.27
2023-05-18T22:59:28.577Z,4.13
2023-05-18T23:01:55.587Z,4.27
2023-05-18T23:04:22.561Z,4.30
2023-05-18T23:06:50.857Z,3.80
2023-05-18T23:09:18.769Z,3.80
2023-05-18T23:11:46.227Z,4.43
2023-05-18T23:14:14.363Z,3.73
2023-05-18T23:16:43.052Z,3.77
2023-05-18T23:19:12.616Z,3.83
2023-05-18T23:21:42.700Z,3.60
2023-05-18T23:24:12.145Z,4.17
2023-05-18T23:26:42.850Z,4.80
2023-05-18T23:29:10.087Z,4.20
2023-05-18T23:31:37.449Z,4.37
2023-05-18T23:34:04.824Z,4.50
2023-05-18T23:36:35.237Z,4.83
2023-05-18T23:39:02.811Z,4.20
2023-05-18T23:41:31.843Z,4.33
2023-05-18T23:43:59.090Z,3.97
2023-05-18T23:46:26.634Z,3.90
2023-05-18T23:48:53.809Z,3.50
2023-05-18T23:51:21.636Z,4.17
2023-05-18T23:53:50.902Z,4.10
2023-05-18T23:56:18.400Z,3.90
2023-05-18T23:58:46.535Z,3.40
